createdAt,value
2018-08-18T00:02:46.905Z,3.27
2018-08-18T00:07:50.172Z,3.27
2018-08-18T00:12:53.422Z,3.00
2018-08-18T00:17:56.715Z,3.40
2018-08-18T00:22:59.982Z,3.10
2018-08-18T00:28:25.193Z,3.07
2018-08-18T00:33:28.444Z,3.43
2018-08-18T00:38:31.681Z,3.40
2018-08-18T00:43:34.948Z,3.40
2018-08-18T00:48:38.191Z,3.60
2018-08-18T00:53:41.462Z,3.70
2018-08-18T00:58:52.800Z,3.60
2018-08-18T01:03:58.111Z,3.87
2018-08-18T01:09:02.052Z,4.27
2018-08-18T01:14:12.292Z,3.67
2018-08-18T01:19:15.500Z,3.87
2018-08-18T01:24:19.147Z,4.30
2018-08-18T01:29:22.378Z,4.20
2018-08-18T01:34:25.363Z,4.23
2018-08-18T01:39:28.606Z,4.33
2018-08-18T01:44:31.857Z,4.23
2018-08-18T01:49:36.934Z,4.07
2018-08-18T01:54:40.214Z,4.70
2018-08-18T01:59:44.783Z,4.80
2018-08-18T02:04:48.402Z,4.90
2018-08-18T02:09:51.650Z,5.03
2018-08-18T02:14:55.431Z,5.40
2018-08-18T02:19:58.798Z,4.80
2018-08-18T02:25:02.111Z,4.80
2018-08-18T02:30:23.211Z,5.00
2018-08-18T02:35:26.450Z,5.50
2018-08-18T02:40:29.702Z,5.57
2018-08-18T02:45:32.972Z,5.93
2018-08-18T02:50:36.350Z,5.70
2018-08-18T02:55:39.633Z,5.20
2018-08-18T03:00:42.960Z,5.23
2018-08-18T03:05:46.271Z,5.57
2018-08-18T03:10:49.551Z,5.47
2018-08-18T03:15:52.844Z,5.30
2018-08-18T03:20:56.107Z,5.20
2018-08-18T03:25:59.398Z,5.37
2018-08-18T03:31:02.681Z,5.70
2018-08-18T03:36:21.541Z,6.03
2018-08-18T03:41:25.963Z,5.70
2018-08-18T03:46:29.223Z,5.70
2018-08-18T03:51:37.878Z,5.80
2018-08-18T03:56:41.420Z,5.97
2018-08-18T04:01:55.367Z,5.63
2018-08-18T04:06:59.540Z,5.90
2018-08-18T04:12:04.984Z,5.70
2018-08-18T04:17:31.833Z,5.87
2018-08-18T04:22:35.156Z,5.80
2018-08-18T04:27:39.996Z,6.27
2018-08-18T04:32:50.500Z,5.97
2018-08-18T04:37:54.719Z,6.07
2018-08-18T04:42:59.339Z,6.33
2018-08-18T04:48:02.623Z,6.40
2018-08-18T04:53:05.943Z,6.17
2018-08-18T04:58:09.259Z,5.70
2018-08-18T05:03:12.556Z,5.53
2018-08-18T05:08:15.844Z,5.50
2018-08-18T05:13:19.120Z,5.43
2018-08-18T05:18:22.413Z,5.57
2018-08-18T05:23:25.740Z,5.30
2018-08-18T05:28:29.017Z,5.30
2018-08-18T05:33:32.283Z,5.37
2018-08-18T05:38:35.620Z,4.50
2018-08-18T05:43:38.996Z,4.80
2018-08-18T05:48:42.285Z,4.63
2018-08-18T05:53:45.628Z,4.73
2018-08-18T05:58:53.924Z,5.40
2018-08-18T06:04:06.475Z,4.43
2018-08-18T06:09:11.519Z,5.50
2018-08-18T06:14:15.319Z,6.63
2018-08-18T06:19:18.731Z,4.93
2018-08-18T06:24:22.104Z,4.17
2018-08-18T06:29:25.403Z,4.47
2018-08-18T06:34:30.668Z,4.30
2018-08-18T06:39:49.906Z,4.27
2018-08-18T06:44:53.287Z,3.90
2018-08-18T06:49:56.577Z,3.77
2018-08-18T06:55:00.063Z,4.30
2018-08-18T07:00:11.792Z,4.05
2018-08-18T07:05:16.387Z,4.33
2018-08-18T07:10:31.504Z,3.92
2018-08-18T07:15:36.048Z,3.85
2018-08-18T07:20:39.336Z,3.25
2018-08-18T07:25:50.467Z,3.70
2018-08-18T07:30:53.971Z,3.65
2018-08-18T07:35:57.252Z,3.60
2018-08-18T07:41:00.548Z,3.62
2018-08-18T07:46:07.327Z,3.60
2018-08-18T07:51:10.578Z,3.58
2018-08-18T07:56:13.833Z,3.65
2018-08-18T08:01:17.145Z,3.87
2018-08-18T08:06:20.461Z,3.77
2018-08-18T08:11:25.154Z,3.70
2018-08-18T08:16:28.642Z,3.47
2018-08-18T08:21:33.121Z,3.80
2018-08-18T08:26:36.753Z,4.00
2018-08-18T08:31:40.012Z,3.75
2018-08-18T08:36:43.384Z,3.55
2018-08-18T08:41:46.623Z,3.98
2018-08-18T08:47:02.466Z,3.87
2018-08-18T08:52:06.212Z,3.83
2018-08-18T08:57:10.744Z,4.85
2018-08-18T09:02:14.773Z,4.72
2018-08-18T09:07:18.151Z,4.50
2018-08-18T09:12:21.456Z,3.70
2018-08-18T09:17:24.726Z,3.40
2018-08-18T09:22:28.678Z,3.65
2018-08-18T09:27:34.199Z,4.08
2018-08-18T09:32:37.492Z,3.27
2018-08-18T09:37:44.092Z,4.10
2018-08-18T09:42:47.827Z,3.92
2018-08-18T09:47:51.135Z,4.15
2018-08-18T09:52:54.727Z,5.05
2018-08-18T09:57:58.039Z,4.35
2018-08-18T10:03:01.357Z,3.92
2018-08-18T10:08:05.662Z,3.80
2018-08-18T10:13:09.181Z,4.12
2018-08-18T10:18:12.592Z,4.00
2018-08-18T10:23:15.884Z,4.30
2018-08-18T10:28:19.463Z,3.98
2018-08-18T10:33:22.761Z,3.75
2018-08-18T10:38:26.112Z,3.40
2018-08-18T10:43:29.760Z,3.60
2018-08-18T10:48:33.064Z,3.33
2018-08-18T10:53:36.941Z,3.58
2018-08-18T10:58:51.504Z,3.52
2018-08-18T11:03:55.155Z,3.20
2018-08-18T11:08:58.892Z,3.27
2018-08-18T11:14:02.619Z,3.12
2018-08-18T11:19:06.529Z,3.25
2018-08-18T11:24:10.166Z,3.25
2018-08-18T11:29:17.195Z,2.83
2018-08-18T11:34:20.460Z,3.35
2018-08-18T11:39:24.742Z,2.58
2018-08-18T11:44:28.256Z,3.20
2018-08-18T11:49:31.548Z,2.77
2018-08-18T11:54:34.949Z,2.77
2018-08-18T11:59:38.248Z,2.52
2018-08-18T12:04:41.800Z,2.65
2018-08-18T12:09:50.520Z,2.60
2018-08-18T12:14:54.681Z,3.10
2018-08-18T12:20:02.408Z,2.72
2018-08-18T12:25:05.739Z,2.85
2018-08-18T12:30:18.965Z,2.90
2018-08-18T12:35:25.400Z,2.92
2018-08-18T12:40:29.088Z,2.75
2018-08-18T12:45:32.433Z,2.70
2018-08-18T12:50:35.824Z,3.05
2018-08-18T12:55:39.357Z,3.08
2018-08-18T13:00:43.037Z,2.67
2018-08-18T13:05:46.330Z,3.40
2018-08-18T13:10:49.826Z,2.98
2018-08-18T13:15:56.993Z,2.50
2018-08-18T13:21:00.503Z,3.12
2018-08-18T13:26:04.153Z,3.02
2018-08-18T13:31:07.436Z,3.75
2018-08-18T13:36:28.795Z,2.52
2018-08-18T13:46:49.568Z,3.02
2018-08-18T13:51:53.605Z,3.00
2018-08-18T13:56:57.369Z,2.55
2018-08-18T14:07:49.296Z,2.85
2018-08-18T14:12:53.449Z,3.20
2018-08-18T14:18:02.205Z,3.35
2018-08-18T14:23:07.634Z,3.37
2018-08-18T14:28:10.961Z,3.85
2018-08-18T14:33:14.287Z,3.20
2018-08-18T14:38:17.837Z,3.77
2018-08-18T14:43:28.199Z,3.08
2018-08-18T14:48:32.095Z,4.30
2018-08-18T14:53:35.502Z,4.42
2018-08-18T14:58:43.285Z,3.37
2018-08-18T15:03:46.265Z,2.83
2018-08-18T15:08:49.637Z,3.15
2018-08-18T15:13:52.832Z,3.70
2018-08-18T15:18:56.119Z,3.20
2018-08-18T15:23:59.403Z,4.37
2018-08-18T15:29:03.206Z,3.65
2018-08-18T15:34:06.521Z,3.47
2018-08-18T15:39:09.812Z,3.98
2018-08-18T15:44:13.177Z,3.92
2018-08-18T15:49:16.757Z,12.98
2018-08-18T15:54:20.842Z,6.67
2018-08-18T15:59:24.258Z,10.28
2018-08-18T16:04:27.533Z,6.05
2018-08-18T16:09:30.827Z,15.85
2018-08-18T16:14:34.099Z,6.97
2018-08-18T16:19:37.512Z,5.08
2018-08-18T16:24:45.503Z,7.80
2018-08-18T16:29:48.891Z,4.83
2018-08-18T16:34:59.231Z,3.22
2018-08-18T16:40:03.682Z,3.30
2018-08-18T16:45:07.096Z,3.55
2018-08-18T16:50:10.505Z,3.17
2018-08-18T16:55:13.818Z,3.50
2018-08-18T17:00:17.124Z,3.05
2018-08-18T17:05:20.450Z,3.75
2018-08-18T17:10:23.734Z,3.10
2018-08-18T17:15:28.551Z,3.55
2018-08-18T17:20:34.976Z,3.20
2018-08-18T17:25:42.804Z,3.27
2018-08-18T17:30:49.031Z,2.47
2018-08-18T17:35:52.863Z,2.70
2018-08-18T17:40:56.133Z,2.67
2018-08-18T17:46:01.467Z,2.77
2018-08-18T17:51:05.334Z,2.70
2018-08-18T17:56:08.728Z,2.70
2018-08-18T18:01:11.944Z,3.13
2018-08-18T18:06:15.596Z,3.00
2018-08-18T18:11:19.448Z,2.90
2018-08-18T18:16:27.422Z,3.43
2018-08-18T18:21:31.016Z,3.10
2018-08-18T18:26:34.606Z,3.37
2018-08-18T18:31:38.173Z,3.67
2018-08-18T18:36:41.782Z,3.50
2018-08-18T18:41:45.359Z,4.00
2018-08-18T18:46:48.935Z,3.90
2018-08-18T18:51:52.542Z,3.90
2018-08-18T18:56:55.880Z,3.80
2018-08-18T19:01:59.227Z,5.40
2018-08-18T19:07:04.427Z,3.63
2018-08-18T19:12:07.716Z,3.90
2018-08-18T19:17:11.348Z,4.00
2018-08-18T19:22:15.327Z,3.90
2018-08-18T19:27:19.208Z,4.13
2018-08-18T19:32:23.055Z,5.70
2018-08-18T19:37:26.760Z,4.50
2018-08-18T19:42:30.695Z,4.30
2018-08-18T19:47:38.721Z,4.70
2018-08-18T19:52:42.670Z,4.40
2018-08-18T19:58:02.287Z,4.40
2018-08-18T20:03:09.363Z,4.60
2018-08-18T20:08:15.849Z,4.67
2018-08-18T20:13:21.079Z,4.33
2018-08-18T20:18:25.760Z,4.57
2018-08-18T20:23:30.064Z,4.37
2018-08-18T20:28:33.510Z,4.37
2018-08-18T20:33:37.904Z,4.70
2018-08-18T20:38:45.497Z,4.40
2018-08-18T20:43:50.106Z,4.70
2018-08-18T20:48:53.298Z,6.33
2018-08-18T20:53:56.492Z,4.90
2018-08-18T20:58:59.523Z,4.80
2018-08-18T21:04:02.954Z,5.63
2018-08-18T21:09:22.010Z,5.03
2018-08-18T21:14:28.156Z,4.90
2018-08-18T21:19:31.527Z,5.20
2018-08-18T21:24:35.275Z,4.87
2018-08-18T21:29:38.358Z,5.60
2018-08-18T21:34:46.966Z,5.63
2018-08-18T21:39:50.848Z,6.13
2018-08-18T21:44:54.953Z,5.03
2018-08-18T21:49:58.417Z,5.23
2018-08-18T21:55:01.841Z,5.30
2018-08-18T22:00:05.254Z,5.43
2018-08-18T22:05:12.453Z,5.63
2018-08-18T22:10:15.543Z,6.37
2018-08-18T22:15:19.839Z,6.03
2018-08-18T22:20:23.596Z,5.17
2018-08-18T22:25:26.893Z,6.00
2018-08-18T22:30:30.191Z,6.13
2018-08-18T22:35:33.497Z,6.13
2018-08-18T22:40:36.816Z,6.33
2018-08-18T22:45:40.072Z,7.10
2018-08-18T22:50:43.360Z,6.53
2018-08-18T22:55:46.645Z,7.10
2018-08-18T23:00:53.845Z,6.90
2018-08-18T23:05:58.315Z,6.90
2018-08-18T23:11:01.924Z,7.20
2018-08-18T23:16:05.380Z,7.33
2018-08-18T23:21:14.964Z,8.97
2018-08-18T23:26:18.246Z,7.53
2018-08-18T23:31:21.280Z,7.53
2018-08-18T23:36:24.546Z,7.30
2018-08-18T23:41:27.808Z,7.80
2018-08-18T23:46:31.072Z,7.40
2018-08-18T23:51:40.083Z,8.60
2018-08-18T23:56:43.363Z,8.20
